Terminal Aerodrome Forecast
Issued by NWS

Home | Current Version | Previous Version | Text Only | Print | Product List | Glossary On
Versions: 1 2 3 4 5 6 7 8 9 10 11 12 13 14 15
000
FTUS43 KDLH 291700
TAFBRD
TAF
KBRD 291732Z 2918/3018 31012KT P6SM SCT035 BKN060
     FM300000 33005KT P6SM SCT060
     FM301500 33010KT P6SM SCT060=

USA.gov is the U.S. government's official web portal to all federal, state and local government web resources and services.